createdAt,value
2018-09-15T00:01:12.381Z,99828.66
2018-09-15T00:03:42.669Z,99829.14
2018-09-15T00:06:15.710Z,99827.25
2018-09-15T00:08:45.523Z,99832.44
2018-09-15T00:11:16.411Z,99837.37
2018-09-15T00:13:48.761Z,99831.27
2018-09-15T00:16:18.983Z,99835.38
2018-09-15T00:18:49.333Z,99832.16
2018-09-15T00:21:21.280Z,99835.75
2018-09-15T00:23:51.084Z,99829.09
2018-09-15T00:26:21.416Z,99829.89
2018-09-15T00:28:52.155Z,99823.05
2018-09-15T00:31:21.791Z,99820.41
2018-09-15T00:33:54.162Z,99817.83
2018-09-15T00:36:24.551Z,99826.95
2018-09-15T00:38:54.824Z,99827.59
2018-09-15T00:41:24.957Z,99830.78
2018-09-15T00:43:56.107Z,99834.16
2018-09-15T00:46:26.536Z,99835.51
2018-09-15T00:48:56.235Z,99838.27
2018-09-15T00:51:26.248Z,99843.97
2018-09-15T00:53:56.510Z,99844.58
2018-09-15T00:56:27.130Z,99847.83
2018-09-15T00:58:57.430Z,99863.93
2018-09-15T01:01:32.786Z,99867.31
2018-09-15T01:04:04.351Z,99861.32
2018-09-15T01:06:34.941Z,99857.10
2018-09-15T01:09:05.485Z,99853.52
2018-09-15T01:11:35.969Z,99862.03
2018-09-15T01:14:08.396Z,99848.78
2018-09-15T01:16:39.821Z,99833.48
2018-09-15T01:19:10.252Z,99841.77
2018-09-15T01:21:40.966Z,99854.59
2018-09-15T01:24:12.910Z,99853.42
2018-09-15T01:26:44.236Z,99844.89
2018-09-15T01:29:14.999Z,99854.33
2018-09-15T01:31:46.960Z,99857.52
2018-09-15T01:34:17.914Z,99861.22
2018-09-15T01:36:49.564Z,99870.19
2018-09-15T01:39:20.397Z,99863.47
2018-09-15T01:41:51.784Z,99871.53
2018-09-15T01:44:22.085Z,99874.80
2018-09-15T01:46:52.019Z,99870.17
2018-09-15T01:49:23.449Z,99861.39
2018-09-15T01:51:53.966Z,99883.70
2018-09-15T01:54:24.361Z,99883.38
2018-09-15T01:56:54.457Z,99884.00
2018-09-15T01:59:24.772Z,99877.84
2018-09-15T02:01:55.380Z,99872.98
2018-09-15T02:04:26.443Z,99866.73
2018-09-15T02:06:56.008Z,99865.16
2018-09-15T02:09:26.765Z,99869.27
2018-09-15T02:11:56.662Z,99880.14
2018-09-15T02:14:26.909Z,99888.36
2018-09-15T02:16:59.992Z,99882.59
2018-09-15T02:19:30.245Z,99879.56
2018-09-15T02:22:00.888Z,99883.42
2018-09-15T02:24:31.603Z,99876.42
2018-09-15T02:27:01.583Z,99865.92
2018-09-15T02:29:31.683Z,99860.34
2018-09-15T02:32:02.514Z,99859.09
2018-09-15T02:34:32.861Z,99868.10
2018-09-15T02:37:04.102Z,99872.88
2018-09-15T02:39:35.155Z,99880.37
2018-09-15T02:42:05.212Z,99881.63
2018-09-15T02:44:35.508Z,99882.13
2018-09-15T02:47:06.021Z,99878.34
2018-09-15T02:49:35.967Z,99876.40
2018-09-15T02:52:06.180Z,99872.94
2018-09-15T02:54:36.470Z,99875.61
2018-09-15T02:57:06.482Z,99872.80
2018-09-15T02:59:36.251Z,99883.01
2018-09-15T03:02:07.281Z,99886.70
2018-09-15T03:04:37.711Z,99890.92
2018-09-15T03:07:07.756Z,99894.45
2018-09-15T03:09:38.196Z,99896.41
2018-09-15T03:12:08.305Z,99895.98
2018-09-15T03:14:38.250Z,99903.69
2018-09-15T03:17:09.351Z,99897.44
2018-09-15T03:19:39.381Z,99905.64
2018-09-15T03:22:11.322Z,99909.17
2018-09-15T03:24:42.911Z,99912.66
2018-09-15T03:27:14.321Z,99917.41
2018-09-15T03:29:47.832Z,99917.97
2018-09-15T03:32:18.702Z,99924.27
2018-09-15T03:34:49.043Z,99915.13
2018-09-15T03:37:19.744Z,99922.48
2018-09-15T03:39:49.956Z,99916.23
2018-09-15T03:42:22.473Z,99917.10
2018-09-15T03:44:53.396Z,99917.98
2018-09-15T03:47:23.036Z,99914.16
2018-09-15T03:49:54.069Z,99911.61
2018-09-15T03:52:24.355Z,99915.92
2018-09-15T03:54:55.065Z,99919.15
2018-09-15T03:57:26.086Z,99910.80
2018-09-15T03:59:55.897Z,99906.62
2018-09-15T04:02:26.199Z,99909.42
2018-09-15T04:04:56.250Z,99908.56
2018-09-15T04:07:26.807Z,99904.19
2018-09-15T04:09:56.969Z,99905.59
2018-09-15T04:12:26.817Z,99915.55
2018-09-15T04:14:58.828Z,99938.42
2018-09-15T04:17:29.916Z,99943.05
2018-09-15T04:19:59.973Z,99940.35
2018-09-15T04:22:30.220Z,99940.92
2018-09-15T04:25:00.836Z,99945.92
2018-09-15T04:27:31.393Z,99941.08
2018-09-15T04:30:02.185Z,99952.78
2018-09-15T04:32:33.308Z,99957.91
2018-09-15T04:35:03.929Z,99963.20
2018-09-15T04:37:34.000Z,99967.30
2018-09-15T04:40:04.932Z,99965.59
2018-09-15T04:42:35.004Z,99968.45
2018-09-15T04:45:04.944Z,99966.86
2018-09-15T04:47:35.884Z,99969.17
2018-09-15T04:50:08.361Z,99967.95
2018-09-15T04:52:38.478Z,99972.67
2018-09-15T04:55:10.375Z,99971.66
2018-09-15T04:57:40.475Z,99975.84
2018-09-15T05:00:10.760Z,99978.09
2018-09-15T05:02:41.331Z,99978.45
2018-09-15T05:05:11.142Z,99988.63
2018-09-15T05:07:41.096Z,99985.63
2018-09-15T05:10:11.725Z,99990.61
2018-09-15T05:12:42.067Z,99993.18
2018-09-15T05:15:12.551Z,99996.17
2018-09-15T05:17:43.159Z,99991.41
2018-09-15T05:20:13.817Z,99998.90
2018-09-15T05:22:44.168Z,99992.52
2018-09-15T05:25:14.609Z,100000.88
2018-09-15T05:27:44.646Z,100000.36
2018-09-15T05:30:14.974Z,99982.46
2018-09-15T05:32:45.423Z,100010.45
2018-09-15T05:35:15.608Z,100017.34
2018-09-15T05:37:45.892Z,100015.42
2018-09-15T05:40:16.116Z,100018.68
2018-09-15T05:42:48.388Z,100027.09
2018-09-15T05:45:19.500Z,100029.28
2018-09-15T05:47:49.615Z,100032.42
2018-09-15T05:50:19.645Z,100037.99
2018-09-15T05:52:50.204Z,100047.30
2018-09-15T05:55:20.898Z,100049.13
2018-09-15T05:57:51.848Z,100051.89
2018-09-15T06:00:23.243Z,100055.58
2018-09-15T06:02:55.716Z,100060.45
2018-09-15T06:05:26.029Z,100059.64
2018-09-15T06:07:56.401Z,100065.97
2018-09-15T06:10:29.128Z,100072.09
2018-09-15T06:12:59.132Z,100062.12
2018-09-15T06:15:28.919Z,100064.20
2018-09-15T06:17:59.745Z,100068.60
2018-09-15T06:20:30.140Z,100066.32
2018-09-15T06:23:02.141Z,100074.68
2018-09-15T06:25:32.254Z,100067.87
2018-09-15T06:28:03.523Z,100075.95
2018-09-15T06:30:38.335Z,100067.95
2018-09-15T06:33:09.935Z,100068.48
2018-09-15T06:35:41.448Z,100069.96
2018-09-15T06:38:16.047Z,100066.88
2018-09-15T06:40:50.005Z,100073.23
2018-09-15T06:43:25.469Z,100073.05
2018-09-15T06:45:58.021Z,100071.35
2018-09-15T06:48:32.520Z,100076.63
2018-09-15T06:51:05.300Z,100082.72
2018-09-15T06:53:37.831Z,100088.56
2018-09-15T06:56:10.270Z,100095.38
2018-09-15T06:58:40.632Z,100092.22
2018-09-15T07:01:11.985Z,100091.33
2018-09-15T07:03:41.967Z,100095.30
2018-09-15T07:06:13.673Z,100097.64
2018-09-15T07:08:44.052Z,100095.09
2018-09-15T07:11:15.142Z,100098.53
2018-09-15T07:13:45.855Z,100102.73
2018-09-15T07:16:17.736Z,100103.00
2018-09-15T07:18:51.006Z,100112.64
2018-09-15T07:21:21.817Z,100118.42
2018-09-15T07:23:55.255Z,100119.05
2018-09-15T07:26:25.743Z,100123.56
2018-09-15T07:28:56.455Z,100120.55
2018-09-15T07:31:27.829Z,100121.41
2018-09-15T07:33:58.199Z,100116.78
2018-09-15T07:36:28.983Z,100120.47
2018-09-15T07:39:00.108Z,100118.75
2018-09-15T07:41:30.606Z,100126.79
2018-09-15T07:44:01.176Z,100127.81
2018-09-15T07:46:31.138Z,100136.09
2018-09-15T07:49:01.570Z,100125.41
2018-09-15T07:51:33.936Z,100132.84
2018-09-15T07:54:03.984Z,100101.44
2018-09-15T07:56:36.673Z,100132.25
2018-09-15T07:59:19.663Z,100145.16
2018-09-15T08:01:50.076Z,100139.41
2018-09-15T08:04:22.600Z,100134.69
2018-09-15T08:06:54.376Z,100132.25
2018-09-15T08:09:30.259Z,100130.90
2018-09-15T08:12:02.469Z,100132.53
2018-09-15T08:14:32.825Z,100127.70
2018-09-15T08:17:05.490Z,100136.09
2018-09-15T08:19:36.610Z,100136.09
2018-09-15T08:22:09.692Z,100137.98
2018-09-15T08:24:39.632Z,100129.95
2018-09-15T08:27:11.434Z,100139.59
2018-09-15T08:29:46.425Z,100133.45
2018-09-15T08:32:18.334Z,100141.00
2018-09-15T08:34:49.748Z,100138.66
2018-09-15T08:37:26.345Z,100135.20
2018-09-15T08:40:04.692Z,100138.63
2018-09-15T08:42:35.661Z,100137.14
2018-09-15T08:45:17.788Z,100137.24
2018-09-15T08:47:51.034Z,100138.53
2018-09-15T08:50:25.460Z,100119.33
2018-09-15T08:53:05.424Z,100140.30
2018-09-15T08:55:44.693Z,100143.11
2018-09-15T08:58:18.672Z,100144.73
2018-09-15T09:00:53.531Z,100150.39
2018-09-15T09:03:27.223Z,100154.09
2018-09-15T09:06:04.550Z,100152.06
2018-09-15T09:08:36.712Z,100124.59
2018-09-15T09:11:10.167Z,100140.52
2018-09-15T09:13:44.059Z,100156.52
2018-09-15T09:16:17.030Z,100146.41
2018-09-15T09:18:48.107Z,100147.79
2018-09-15T09:21:28.097Z,100152.58
2018-09-15T09:24:03.516Z,100149.64
2018-09-15T09:26:56.359Z,100148.36
2018-09-15T09:29:46.211Z,100156.78
2018-09-15T09:32:28.775Z,100148.08
2018-09-15T09:35:01.580Z,100154.23
2018-09-15T09:37:33.658Z,100154.93
2018-09-15T09:40:06.773Z,100149.33
2018-09-15T09:42:47.081Z,100152.80
2018-09-15T09:45:25.222Z,100153.69
2018-09-15T09:48:01.249Z,100153.97
2018-09-15T09:50:36.434Z,100147.28
2018-09-15T09:53:08.753Z,100146.91
2018-09-15T09:55:38.930Z,100146.41
2018-09-15T09:58:10.056Z,100149.35
2018-09-15T10:00:48.297Z,100152.92
2018-09-15T10:03:22.429Z,100145.71
2018-09-15T10:06:01.637Z,100140.95
2018-09-15T10:08:34.212Z,100134.44
2018-09-15T10:11:05.783Z,100117.08
2018-09-15T10:13:41.130Z,100137.45
2018-09-15T10:16:13.687Z,100139.34
2018-09-15T10:18:46.671Z,100144.27
2018-09-15T10:21:20.790Z,100140.20
2018-09-15T10:24:03.636Z,100139.50
2018-09-15T10:26:35.129Z,100148.75
2018-09-15T10:29:05.333Z,100141.16
2018-09-15T10:31:40.274Z,100131.51
2018-09-15T10:34:13.022Z,100131.51
2018-09-15T10:36:46.458Z,100132.37
2018-09-15T10:39:20.438Z,100132.64
2018-09-15T10:42:04.900Z,100122.89
2018-09-15T10:44:36.954Z,100128.34
2018-09-15T10:47:07.991Z,100132.52
2018-09-15T10:49:39.497Z,100124.96
2018-09-15T10:52:10.444Z,100119.59
2018-09-15T10:54:41.052Z,100122.53
2018-09-15T10:57:14.660Z,100110.81
2018-09-15T10:59:50.147Z,100116.48
2018-09-15T11:02:21.128Z,100113.58
2018-09-15T11:04:53.007Z,100117.31
2018-09-15T11:07:23.471Z,100111.18
2018-09-15T11:09:57.062Z,100088.00
2018-09-15T11:12:29.562Z,100103.80
2018-09-15T11:15:02.217Z,100109.06
2018-09-15T11:17:34.735Z,100101.05
2018-09-15T11:20:05.966Z,100085.06
2018-09-15T11:22:38.118Z,100107.80
2018-09-15T11:25:14.668Z,100077.38
2018-09-15T11:27:47.380Z,100100.33
2018-09-15T11:30:18.320Z,100098.47
2018-09-15T11:32:49.618Z,100103.00
2018-09-15T11:35:20.035Z,100105.41
2018-09-15T11:37:51.709Z,100104.87
2018-09-15T11:40:22.460Z,100104.61
2018-09-15T11:42:55.480Z,100110.48
2018-09-15T11:45:27.258Z,100097.66
2018-09-15T11:47:58.954Z,100106.95
2018-09-15T11:50:30.978Z,100105.61
2018-09-15T11:53:04.751Z,100093.88
2018-09-15T11:55:35.910Z,100099.19
2018-09-15T11:58:06.295Z,100107.97
2018-09-15T12:00:41.395Z,100101.00
2018-09-15T12:03:12.221Z,100092.34
2018-09-15T12:05:43.055Z,100094.16
2018-09-15T12:08:15.095Z,100093.09
2018-09-15T12:10:49.087Z,100099.17
2018-09-15T12:13:21.236Z,100092.32
2018-09-15T12:15:52.801Z,100096.20
2018-09-15T12:18:23.969Z,100096.25
2018-09-15T12:20:54.898Z,100099.81
2018-09-15T12:23:25.809Z,100092.72
2018-09-15T12:25:57.109Z,100089.35
2018-09-15T12:28:27.939Z,100089.39
2018-09-15T12:30:58.660Z,100102.07
2018-09-15T12:33:30.078Z,100100.89
2018-09-15T12:36:00.848Z,100095.13
2018-09-15T12:38:33.779Z,100097.17
2018-09-15T12:41:04.271Z,100092.41
2018-09-15T12:43:34.718Z,100091.73
2018-09-15T12:46:10.044Z,100091.91
2018-09-15T12:48:47.609Z,100084.74
2018-09-15T12:51:18.198Z,100089.76
2018-09-15T12:53:49.927Z,100096.53
2018-09-15T12:56:19.836Z,100096.39
2018-09-15T12:58:51.083Z,100099.62
2018-09-15T13:01:21.783Z,100080.40
2018-09-15T13:03:53.147Z,100096.20
2018-09-15T13:06:25.923Z,100098.97
2018-09-15T13:08:57.697Z,100092.89
2018-09-15T13:11:31.484Z,100066.70
2018-09-15T13:14:02.148Z,100097.11
2018-09-15T13:16:32.094Z,100090.44
2018-09-15T13:19:03.281Z,100093.77
2018-09-15T13:21:36.816Z,100101.39
2018-09-15T13:24:07.034Z,100095.36
2018-09-15T13:26:38.671Z,100096.34
2018-09-15T13:29:13.761Z,100105.02
2018-09-15T13:31:45.033Z,100099.20
2018-09-15T13:34:25.035Z,100104.55
2018-09-15T13:36:58.297Z,100101.00
2018-09-15T13:39:30.356Z,100110.83
2018-09-15T13:42:00.887Z,100107.73
2018-09-15T13:44:33.139Z,100102.14
2018-09-15T13:47:05.002Z,100106.75
2018-09-15T13:49:40.939Z,100099.80
2018-09-15T13:52:13.533Z,100106.75
2018-09-15T13:54:45.067Z,100102.91
2018-09-15T13:57:16.289Z,100110.59
2018-09-15T13:59:47.414Z,100109.03
2018-09-15T14:02:17.889Z,100116.41
2018-09-15T14:04:48.088Z,100123.00
2018-09-15T14:07:18.885Z,100119.61
2018-09-15T14:09:49.356Z,100120.66
2018-09-15T14:12:21.178Z,100120.72
2018-09-15T14:14:52.309Z,100119.63
2018-09-15T14:17:22.141Z,100126.11
2018-09-15T14:19:52.575Z,100118.91
2018-09-15T14:22:22.697Z,100118.00
2018-09-15T14:24:53.299Z,100115.73
2018-09-15T14:27:23.249Z,100123.27
2018-09-15T14:29:54.105Z,100119.20
2018-09-15T14:32:25.110Z,100129.33
2018-09-15T14:34:54.951Z,100121.06
2018-09-15T14:37:25.518Z,100112.23
2018-09-15T14:40:01.751Z,100127.96
2018-09-15T14:42:32.162Z,100123.88
2018-09-15T14:45:03.362Z,100118.39
2018-09-15T14:47:33.184Z,100121.89
2018-09-15T14:50:10.504Z,100124.33
2018-09-15T14:52:40.729Z,100119.70
2018-09-15T14:55:12.963Z,100121.80
2018-09-15T14:57:43.143Z,100123.75
2018-09-15T15:00:15.616Z,100125.33
2018-09-15T15:02:51.098Z,100114.64
2018-09-15T15:05:21.642Z,100119.22
2018-09-15T15:07:52.620Z,100114.11
2018-09-15T15:10:22.684Z,100117.20
2018-09-15T15:12:53.170Z,100117.74
2018-09-15T15:15:24.132Z,100114.67
2018-09-15T15:17:55.114Z,100116.31
2018-09-15T15:20:26.362Z,100115.33
2018-09-15T15:22:56.262Z,100109.70
2018-09-15T15:25:26.230Z,100114.53
2018-09-15T15:27:56.779Z,100119.58
2018-09-15T15:30:27.673Z,100116.34
2018-09-15T15:32:58.305Z,100116.14
2018-09-15T15:35:31.354Z,100118.88
2018-09-15T15:38:03.039Z,100121.33
2018-09-15T15:40:33.858Z,100120.48
2018-09-15T15:43:04.252Z,100118.92
2018-09-15T15:45:34.254Z,100126.70
2018-09-15T15:48:04.213Z,100115.20
2018-09-15T15:50:34.870Z,100106.15
2018-09-15T15:53:09.322Z,100095.71
2018-09-15T15:55:40.526Z,100102.66
2018-09-15T15:58:12.680Z,100106.45
2018-09-15T16:00:45.402Z,100099.23
2018-09-15T16:03:16.697Z,100110.73
2018-09-15T16:05:50.087Z,100118.72
2018-09-15T16:08:20.273Z,100119.02
2018-09-15T16:10:50.403Z,100118.76
2018-09-15T16:13:21.592Z,100123.00
2018-09-15T16:15:52.811Z,100126.20
2018-09-15T16:18:22.748Z,100124.33
2018-09-15T16:20:54.700Z,100130.47
2018-09-15T16:23:24.778Z,100127.30
2018-09-15T16:25:55.609Z,100131.53
2018-09-15T16:28:26.128Z,100146.95
2018-09-15T16:30:58.121Z,100150.95
2018-09-15T16:33:28.534Z,100145.06
2018-09-15T16:35:58.936Z,100145.81
2018-09-15T16:38:30.581Z,100148.75
2018-09-15T16:41:01.585Z,100148.47
2018-09-15T16:43:31.788Z,100147.91
2018-09-15T16:46:02.118Z,100147.66
2018-09-15T16:48:33.696Z,100140.17
2018-09-15T16:51:03.746Z,100150.80
2018-09-15T16:53:36.522Z,100153.95
2018-09-15T16:56:10.056Z,100149.14
2018-09-15T16:58:41.148Z,100154.23
2018-09-15T17:04:52.037Z,100150.55
2018-09-15T17:07:27.599Z,100156.94
2018-09-15T17:10:06.006Z,100135.57
2018-09-15T17:12:37.140Z,100162.48
2018-09-15T17:15:14.963Z,100162.06
2018-09-15T17:17:52.805Z,100159.08
2018-09-15T17:20:43.292Z,100165.34
2018-09-15T17:23:20.553Z,100150.14
2018-09-15T17:25:59.126Z,100161.06
2018-09-15T17:28:32.367Z,100160.20
2018-09-15T17:31:04.543Z,100169.09
2018-09-15T17:33:41.116Z,100168.75
2018-09-15T17:36:13.346Z,100172.45
2018-09-15T17:38:45.625Z,100171.02
2018-09-15T17:41:16.083Z,100172.97
2018-09-15T17:43:48.262Z,100176.58
2018-09-15T17:46:19.498Z,100172.83
2018-09-15T17:48:49.253Z,100184.51
2018-09-15T17:51:19.093Z,100192.44
2018-09-15T17:53:49.073Z,100190.52
2018-09-15T17:56:20.037Z,100188.80
2018-09-15T17:58:50.145Z,100199.58
2018-09-15T18:01:21.686Z,100192.87
2018-09-15T18:03:51.438Z,100207.41
2018-09-15T18:06:21.774Z,100209.42
2018-09-15T18:08:51.913Z,100211.73
2018-09-15T18:11:24.512Z,100216.88
2018-09-15T18:13:57.358Z,100212.45
2018-09-15T18:16:28.719Z,100221.64
2018-09-15T18:18:58.923Z,100216.50
2018-09-15T18:25:01.113Z,100229.20
2018-09-15T18:27:32.859Z,100230.13
2018-09-15T18:30:03.259Z,100227.84
2018-09-15T18:32:35.119Z,100233.37
2018-09-15T18:35:07.129Z,100237.56
2018-09-15T18:37:36.924Z,100234.52
2018-09-15T18:40:07.188Z,100236.75
2018-09-15T18:42:42.232Z,100236.95
2018-09-15T18:45:17.330Z,100243.10
2018-09-15T18:47:47.954Z,100241.14
2018-09-15T18:50:19.557Z,100248.98
2018-09-15T18:52:52.353Z,100250.73
2018-09-15T18:55:24.878Z,100251.25
2018-09-15T18:57:55.582Z,100258.30
2018-09-15T19:00:27.889Z,100258.73
2018-09-15T19:02:59.639Z,100255.50
2018-09-15T19:05:32.091Z,100252.85
2018-09-15T19:08:06.819Z,100258.80
2018-09-15T19:10:37.237Z,100264.95
2018-09-15T19:13:09.245Z,100259.48
2018-09-15T19:15:42.484Z,100259.67
2018-09-15T19:18:15.389Z,100258.28
2018-09-15T19:20:46.645Z,100264.88
2018-09-15T19:23:19.930Z,100267.00
2018-09-15T19:25:52.244Z,100264.91
2018-09-15T19:28:28.091Z,100267.00
2018-09-15T19:31:00.584Z,100263.16
2018-09-15T19:33:33.452Z,100268.87
2018-09-15T19:36:07.820Z,100267.87
2018-09-15T19:38:39.656Z,100266.11
2018-09-15T19:41:12.601Z,100268.22
2018-09-15T19:43:50.988Z,100263.17
2018-09-15T19:46:24.962Z,100267.20
2018-09-15T19:48:56.133Z,100270.85
2018-09-15T19:51:27.543Z,100262.64
2018-09-15T19:54:02.942Z,100272.69
2018-09-15T19:56:34.447Z,100263.79
2018-09-15T19:59:06.623Z,100267.39
2018-09-15T20:01:41.477Z,100243.98
2018-09-15T20:04:14.246Z,100279.78
2018-09-15T20:06:55.835Z,100281.55
2018-09-15T20:09:31.969Z,100282.09
2018-09-15T20:12:04.790Z,100285.06
2018-09-15T20:14:38.042Z,100292.90
2018-09-15T20:17:08.177Z,100296.27
2018-09-15T20:19:38.027Z,100298.47
2018-09-15T20:22:12.631Z,100296.73
2018-09-15T20:24:45.619Z,100299.09
2018-09-15T20:27:17.572Z,100305.41
2018-09-15T20:29:52.162Z,100304.94
2018-09-15T20:32:27.533Z,100306.33
2018-09-15T20:35:00.205Z,100306.67
2018-09-15T20:37:32.676Z,100307.83
2018-09-15T20:40:03.843Z,100302.47
2018-09-15T20:42:35.061Z,100308.27
2018-09-15T20:45:09.466Z,100310.92
2018-09-15T20:47:41.449Z,100312.29
2018-09-15T20:50:13.757Z,100316.16
2018-09-15T20:52:45.398Z,100315.05
2018-09-15T20:55:15.385Z,100312.73
2018-09-15T20:57:45.627Z,100310.47
2018-09-15T21:00:15.564Z,100319.91
2018-09-15T21:02:45.452Z,100322.00
2018-09-15T21:05:16.201Z,100316.58
2018-09-15T21:07:46.602Z,100317.00
2018-09-15T21:10:17.544Z,100324.51
2018-09-15T21:12:47.712Z,100329.03
2018-09-15T21:15:17.751Z,100330.69
2018-09-15T21:17:48.341Z,100335.08
2018-09-15T21:20:18.425Z,100335.89
2018-09-15T21:22:48.389Z,100337.30
2018-09-15T21:25:19.725Z,100333.59
2018-09-15T21:27:49.621Z,100333.17
2018-09-15T21:30:19.609Z,100333.98
2018-09-15T21:32:50.191Z,100329.83
2018-09-15T21:35:20.098Z,100334.66
2018-09-15T21:37:50.581Z,100332.14
2018-09-15T21:40:21.101Z,100336.35
2018-09-15T21:42:51.918Z,100339.77
2018-09-15T21:45:22.286Z,100343.45
2018-09-15T21:47:52.713Z,100345.08
2018-09-15T21:50:24.464Z,100350.20
2018-09-15T21:52:56.129Z,100350.13
2018-09-15T21:55:27.197Z,100350.13
2018-09-15T21:57:57.132Z,100346.55
2018-09-15T22:00:27.233Z,100324.98
2018-09-15T22:02:58.099Z,100354.98
2018-09-15T22:05:29.402Z,100354.30
2018-09-15T22:07:59.332Z,100351.74
2018-09-15T22:10:30.378Z,100350.13
2018-09-15T22:13:02.066Z,100330.31
2018-09-15T22:17:38.747Z,100358.52
2018-09-15T22:20:08.868Z,100362.25
2018-09-15T22:22:39.783Z,100361.66
2018-09-15T22:25:10.902Z,100355.85
2018-09-15T22:27:41.175Z,100355.33
2018-09-15T22:30:12.034Z,100355.92
2018-09-15T22:32:43.559Z,100356.02
2018-09-15T22:35:14.388Z,100350.73
2018-09-15T22:37:44.684Z,100352.69
2018-09-15T22:40:14.948Z,100356.22
2018-09-15T22:42:47.958Z,100358.98
2018-09-15T22:45:18.224Z,100366.13
2018-09-15T22:47:48.545Z,100362.65
2018-09-15T22:50:19.855Z,100356.11
2018-09-15T22:52:50.406Z,100366.25
2018-09-15T22:55:20.401Z,100371.95
2018-09-15T22:57:52.429Z,100361.48
2018-09-15T23:00:24.760Z,100363.52
2018-09-15T23:02:55.158Z,100358.53
2018-09-15T23:05:25.825Z,100362.23
2018-09-15T23:07:57.054Z,100366.61
2018-09-15T23:10:27.647Z,100364.62
2018-09-15T23:12:59.186Z,100360.66
2018-09-15T23:15:29.005Z,100370.20
2018-09-15T23:18:01.160Z,100367.78
2018-09-15T23:20:31.077Z,100364.12
2018-09-15T23:23:02.157Z,100368.95
2018-09-15T23:25:32.753Z,100366.01
2018-09-15T23:28:04.863Z,100367.62
2018-09-15T23:30:35.509Z,100374.38
2018-09-15T23:33:07.733Z,100373.06
2018-09-15T23:35:39.443Z,100375.94
2018-09-15T23:38:10.394Z,100365.19
2018-09-15T23:40:40.868Z,100362.77
2018-09-15T23:43:14.059Z,100369.70
2018-09-15T23:45:44.040Z,100367.11
2018-09-15T23:48:14.326Z,100367.98
2018-09-15T23:50:44.943Z,100364.23
2018-09-15T23:53:16.252Z,100365.14
2018-09-15T23:55:48.807Z,100362.61
2018-09-15T23:58:19.123Z,100362.55
